Time;durP1;ratioP1;P1;durP2;ratioP2;P2;SDS_P1;SDS_P2;PMS_P1;PMS_P2;Temp;Humidity;BMP_temperature;BMP_pressure;BME280_temperature;BME280_humidity;BME280_pressure;Samples;Min_cycle;Max_cycle;Signal;HPM_P1;HPM_P2
2023/12/30 00:00:28;;;;;;;2.88;1.20;;;8.50;99.90;;;;;;4998565;28;20076;-74
2023/12/30 00:02:54;;;;;;;2.33;1.35;;;8.50;99.90;;;;;;4990287;28;20034;-74
2023/12/30 00:05:28;;;;;;;3.65;1.00;;;8.40;99.90;;;;;;5013178;28;20034;-74
2023/12/30 00:07:57;;;;;;;2.13;0.90;;;8.40;99.90;;;;;;5012773;28;20026;-73
2023/12/30 00:10:22;;;;;;;3.03;1.13;;;8.40;99.90;;;;;;5014167;28;20599;-73
2023/12/30 00:12:51;;;;;;;3.47;1.55;;;8.40;99.90;;;;;;5014175;28;20083;-73
2023/12/30 00:15:16;;;;;;;4.15;2.00;;;8.40;99.90;;;;;;4995744;28;20501;-73
2023/12/30 00:17:42;;;;;;;2.80;1.70;;;8.40;99.90;;;;;;4998495;28;20072;-72
2023/12/30 00:20:08;;;;;;;4.22;2.13;;;8.40;99.90;;;;;;5016941;28;20393;-72
2023/12/30 00:22:33;;;;;;;6.60;2.30;;;8.30;99.90;;;;;;5014679;28;20498;-72
2023/12/30 00:24:59;;;;;;;6.32;2.50;;;8.20;99.90;;;;;;5009337;28;20026;-72
2023/12/30 00:27:25;;;;;;;5.70;2.78;;;8.20;99.90;;;;;;5012801;28;20036;-74
2023/12/30 00:29:51;;;;;;;5.90;2.58;;;8.10;99.90;;;;;;5014866;28;20168;-73
2023/12/30 00:32:22;;;;;;;5.47;2.72;;;8.10;99.90;;;;;;5009651;28;20029;-72
2023/12/30 00:34:49;;;;;;;6.05;3.10;;;8.00;99.90;;;;;;5013616;28;20713;-72
2023/12/30 00:37:24;;;;;;;4.32;2.53;;;8.00;99.90;;;;;;5010070;28;20026;-71
2023/12/30 00:39:50;;;;;;;4.35;1.77;;;7.90;99.90;;;;;;5012484;28;20384;-72
2023/12/30 00:42:18;;;;;;;4.82;2.00;;;7.90;99.90;;;;;;5012585;28;20508;-71
2023/12/30 00:44:44;;;;;;;4.57;2.13;;;7.80;99.90;;;;;;5009954;28;20625;-72
2023/12/30 00:47:25;;;;;;;3.88;2.33;;;7.80;99.90;;;;;;5032076;23;20033;-74
2023/12/30 00:49:50;;;;;;;5.22;3.10;;;7.70;99.90;;;;;;5015006;28;20526;-74
2023/12/30 00:52:16;;;;;;;6.38;2.63;;;7.70;99.90;;;;;;5017345;28;20030;-75
2023/12/30 00:54:42;;;;;;;5.10;2.67;;;7.60;99.90;;;;;;5013159;28;20465;-74
2023/12/30 00:57:07;;;;;;;5.35;2.58;;;7.60;99.90;;;;;;4988872;28;20380;-74
2023/12/30 00:59:51;;;;;;;4.50;2.50;;;7.50;99.90;;;;;;4994097;28;20022;-74
2023/12/30 01:02:22;;;;;;;4.07;1.70;;;7.50;99.90;;;;;;4990697;28;20026;-74
2023/12/30 01:04:51;;;;;;;3.88;1.20;;;7.50;99.90;;;;;;4987588;28;20033;-74
2023/12/30 01:07:20;;;;;;;3.22;1.48;;;7.50;99.90;;;;;;4994581;28;20022;-74
2023/12/30 01:09:54;;;;;;;3.03;1.30;;;7.50;99.90;;;;;;4975817;28;20027;-74
2023/12/30 01:12:20;;;;;;;2.92;1.33;;;7.50;99.90;;;;;;4974101;28;20038;-74
2023/12/30 01:14:51;;;;;;;2.67;1.10;;;7.50;99.90;;;;;;4988962;28;20397;-74
2023/12/30 01:17:20;;;;;;;1.55;0.95;;;7.50;99.90;;;;;;4983443;28;20493;-74
2023/12/30 01:19:52;;;;;;;3.10;0.90;;;7.50;99.90;;;;;;4991081;28;20069;-74
2023/12/30 01:22:20;;;;;;;2.10;0.98;;;7.50;99.90;;;;;;4998470;28;20543;-74
2023/12/30 01:24:46;;;;;;;2.30;0.80;;;7.50;99.90;;;;;;4986409;28;20196;-74
2023/12/30 01:27:17;;;;;;;1.65;0.82;;;7.50;99.90;;;;;;5001835;28;20097;-74
2023/12/30 01:29:43;;;;;;;1.75;1.00;;;7.60;99.90;;;;;;5000909;28;20438;-74
2023/12/30 01:32:12;;;;;;;2.33;0.98;;;7.60;99.90;;;;;;4996713;28;20050;-74
2023/12/30 01:35:03;;;;;;;2.17;0.80;;;7.60;99.90;;;;;;4993490;28;20022;-74
2023/12/30 01:37:29;;;;;;;2.88;0.73;;;7.60;99.90;;;;;;4997301;28;20026;-74
2023/12/30 01:39:57;;;;;;;1.42;0.70;;;7.60;99.90;;;;;;5001445;28;20071;-74
2023/12/30 01:42:23;;;;;;;2.05;1.00;;;7.60;99.90;;;;;;4996060;28;20504;-74
2023/12/30 01:44:55;;;;;;;2.45;0.60;;;7.70;99.90;;;;;;5000693;28;20046;-75
2023/12/30 01:47:20;;;;;;;2.75;0.70;;;7.70;99.90;;;;;;4984498;28;20194;-75
2023/12/30 01:49:46;;;;;;;3.60;1.40;;;7.70;99.90;;;;;;4992312;28;20030;-74
2023/12/30 01:52:12;;;;;;;1.20;0.70;;;7.70;99.90;;;;;;4992712;28;20046;-75
2023/12/30 01:54:39;;;;;;;2.65;1.00;;;7.80;99.90;;;;;;4993104;28;20068;-74
2023/12/30 01:57:05;;;;;;;4.25;0.90;;;7.80;99.90;;;;;;4992623;28;20029;-74
2023/12/30 01:59:36;;;;;;;2.30;0.90;;;7.80;99.90;;;;;;4992866;28;20097;-74
2023/12/30 02:02:07;;;;;;;1.40;0.70;;;7.90;99.90;;;;;;4992653;28;20022;-74
2023/12/30 02:04:38;;;;;;;2.03;0.90;;;7.90;99.90;;;;;;4987719;28;20026;-74
2023/12/30 02:07:09;;;;;;;1.55;0.98;;;7.90;99.90;;;;;;4992501;28;20026;-75
2023/12/30 02:09:38;;;;;;;1.55;0.77;;;8.00;99.90;;;;;;4990390;28;20037;-75
2023/12/30 02:12:04;;;;;;;1.00;0.90;;;8.10;99.90;;;;;;4991096;28;20018;-75
2023/12/30 02:14:30;;;;;;;0.88;0.77;;;8.20;99.90;;;;;;4992196;28;20018;-75
2023/12/30 02:16:57;;;;;;;1.98;0.85;;;8.20;99.90;;;;;;4992047;28;20388;-75
2023/12/30 02:19:29;;;;;;;2.40;1.30;;;8.30;99.90;;;;;;4990118;28;20030;-75
2023/12/30 02:21:54;;;;;;;2.17;0.98;;;8.30;99.90;;;;;;4985304;28;20018;-74
2023/12/30 02:24:23;;;;;;;3.38;0.98;;;8.30;99.90;;;;;;4992575;28;20473;-74
2023/12/30 02:26:49;;;;;;;2.15;0.80;;;8.40;99.90;;;;;;4992338;28;20113;-75
2023/12/30 02:29:20;;;;;;;2.08;0.75;;;8.40;99.90;;;;;;4988051;28;20084;-75
2023/12/30 02:31:46;;;;;;;2.10;0.70;;;8.40;99.90;;;;;;4997029;28;20030;-75
2023/12/30 02:34:22;;;;;;;1.48;0.85;;;8.50;99.90;;;;;;4992172;28;20030;-75
2023/12/30 02:36:48;;;;;;;3.33;1.17;;;8.50;99.90;;;;;;4986889;28;20027;-75
2023/12/30 02:39:17;;;;;;;1.63;0.70;;;8.50;99.90;;;;;;4992845;28;20389;-75
2023/12/30 02:41:42;;;;;;;1.77;0.93;;;8.50;99.90;;;;;;4986238;28;20061;-75
2023/12/30 02:44:21;;;;;;;1.00;0.70;;;8.50;99.90;;;;;;4967042;28;20050;-75
2023/12/30 02:46:52;;;;;;;1.58;0.77;;;8.50;99.90;;;;;;4984920;28;20110;-75
2023/12/30 02:49:42;;;;;;;2.00;0.68;;;8.50;99.90;;;;;;4991058;28;20034;-74
2023/12/30 02:52:11;;;;;;;2.95;0.80;;;8.50;99.90;;;;;;4986833;28;20354;-74
2023/12/30 02:54:46;;;;;;;1.95;0.85;;;8.50;99.90;;;;;;4981879;28;20485;-74
2023/12/30 02:57:11;;;;;;;3.25;1.23;;;8.40;99.90;;;;;;4980004;28;20069;-74
2023/12/30 02:59:40;;;;;;;1.98;0.85;;;8.40;99.90;;;;;;4984121;28;20501;-74
2023/12/30 03:02:09;;;;;;;2.17;1.13;;;8.40;99.90;;;;;;4994292;28;20022;-74
2023/12/30 03:04:34;;;;;;;1.83;0.75;;;8.40;99.90;;;;;;4996286;28;20026;-74
2023/12/30 03:07:00;;;;;;;1.08;0.77;;;8.40;99.90;;;;;;4991080;28;20384;-75
2023/12/30 03:09:25;;;;;;;3.42;1.27;;;8.40;99.90;;;;;;4990410;28;20490;-74
2023/12/30 03:11:52;;;;;;;2.13;0.90;;;8.40;99.90;;;;;;4989820;28;20035;-74
2023/12/30 03:14:36;;;;;;;1.48;0.68;;;8.40;99.90;;;;;;4992303;28;20400;-74
2023/12/30 03:17:17;;;;;;;1.38;0.60;;;8.40;99.90;;;;;;4987090;28;20026;-74
2023/12/30 03:19:44;;;;;;;1.70;0.95;;;8.40;99.90;;;;;;4991695;28;20026;-74
2023/12/30 03:22:09;;;;;;;2.45;0.80;;;8.40;99.90;;;;;;5000234;28;20042;-75
2023/12/30 03:24:41;;;;;;;2.50;0.82;;;8.40;99.90;;;;;;4991820;28;20050;-74
2023/12/30 03:27:22;;;;;;;1.50;0.60;;;8.40;99.90;;;;;;4973098;28;20022;-74
2023/12/30 03:29:54;;;;;;;3.33;0.63;;;8.40;99.90;;;;;;4989753;28;20053;-74
2023/12/30 03:32:19;;;;;;;1.70;0.60;;;8.40;99.90;;;;;;4969545;28;20505;-74
2023/12/30 03:34:48;;;;;;;2.90;0.60;;;8.40;99.90;;;;;;4990926;28;20058;-74
2023/12/30 03:37:13;;;;;;;0.95;0.57;;;8.40;99.90;;;;;;4975672;28;20033;-74
2023/12/30 03:39:40;;;;;;;3.00;0.68;;;8.40;99.90;;;;;;4991047;28;20022;-75
2023/12/30 03:42:06;;;;;;;3.38;0.50;;;8.40;99.90;;;;;;4995260;28;20050;-74
2023/12/30 03:44:34;;;;;;;2.40;0.50;;;8.40;99.90;;;;;;4986778;28;20019;-74
2023/12/30 03:47:03;;;;;;;2.17;0.50;;;8.50;99.90;;;;;;4986563;28;20035;-74
2023/12/30 03:49:37;;;;;;;1.23;0.65;;;8.50;99.90;;;;;;4990987;28;20077;-75
2023/12/30 03:52:06;;;;;;;2.13;0.60;;;8.50;99.90;;;;;;4995369;28;20041;-74
2023/12/30 03:54:35;;;;;;;1.02;0.65;;;8.50;99.90;;;;;;4990352;28;20030;-75
2023/12/30 03:57:10;;;;;;;2.08;0.55;;;8.50;99.90;;;;;;4982017;28;20462;-74
2023/12/30 03:59:41;;;;;;;2.85;0.50;;;8.50;99.90;;;;;;4976886;28;20022;-74
2023/12/30 04:02:10;;;;;;;2.35;0.60;;;8.60;99.90;;;;;;4997734;28;20029;-75
2023/12/30 04:04:41;;;;;;;2.78;0.50;;;8.60;99.90;;;;;;4990935;28;20026;-74
2023/12/30 04:07:09;;;;;;;2.30;0.85;;;8.60;99.90;;;;;;4975922;28;20541;-74
2023/12/30 04:09:35;;;;;;;2.55;0.80;;;8.60;99.90;;;;;;4991424;28;20077;-74
2023/12/30 04:12:20;;;;;;;1.52;0.60;;;8.60;99.90;;;;;;4994605;28;20034;-74
2023/12/30 04:14:46;;;;;;;1.92;0.55;;;8.70;99.90;;;;;;4987775;28;20637;-74
2023/12/30 04:17:15;;;;;;;0.68;0.40;;;8.70;99.90;;;;;;4994496;28;20029;-74
2023/12/30 04:19:43;;;;;;;1.98;0.60;;;8.70;99.90;;;;;;4976859;28;20018;-74
2023/12/30 04:22:09;;;;;;;1.25;0.60;;;8.70;99.90;;;;;;4994140;28;20042;-74
2023/12/30 04:24:34;;;;;;;1.98;0.50;;;8.70;99.90;;;;;;4989293;28;20501;-75
2023/12/30 04:27:04;;;;;;;1.42;0.57;;;8.60;99.90;;;;;;4982459;28;20092;-75
2023/12/30 04:29:41;;;;;;;1.42;0.50;;;8.70;99.90;;;;;;4993307;28;20464;-75
2023/12/30 04:32:07;;;;;;;3.08;0.38;;;8.60;99.90;;;;;;4975798;28;20026;-75
2023/12/30 04:34:36;;;;;;;2.47;0.50;;;8.60;99.90;;;;;;4995293;28;20543;-74
2023/12/30 04:37:10;;;;;;;0.80;0.40;;;8.60;99.90;;;;;;4994243;28;20031;-75
2023/12/30 04:39:42;;;;;;;0.70;0.32;;;8.50;99.90;;;;;;4992564;28;20049;-74
2023/12/30 04:42:23;;;;;;;1.83;0.43;;;8.50;99.90;;;;;;4990252;28;20037;-74
2023/12/30 04:44:57;;;;;;;1.60;0.50;;;8.50;99.90;;;;;;4993453;28;20033;-75
2023/12/30 04:47:23;;;;;;;2.05;0.40;;;8.50;99.90;;;;;;4988367;28;20448;-74
2023/12/30 04:49:49;;;;;;;4.72;0.40;;;8.50;99.90;;;;;;4988092;28;20061;-74
2023/12/30 04:52:17;;;;;;;0.82;0.40;;;8.50;99.90;;;;;;4995629;28;20022;-74
2023/12/30 04:54:46;;;;;;;1.55;0.50;;;8.50;99.90;;;;;;4994077;28;20018;-74
2023/12/30 04:57:21;;;;;;;1.33;0.43;;;8.50;99.90;;;;;;4991719;28;20470;-74
2023/12/30 04:59:49;;;;;;;0.70;0.60;;;8.50;99.90;;;;;;4971276;28;20022;-74
2023/12/30 05:02:15;;;;;;;2.25;0.50;;;8.50;99.90;;;;;;4983767;28;20117;-74
2023/12/30 05:04:44;;;;;;;1.30;0.40;;;8.50;99.90;;;;;;4990380;28;20081;-74
2023/12/30 05:07:13;;;;;;;1.38;0.45;;;8.50;99.90;;;;;;4984650;28;20026;-74
2023/12/30 05:09:38;;;;;;;1.13;0.40;;;8.60;99.90;;;;;;4997140;28;20026;-73
2023/12/30 05:12:04;;;;;;;1.73;0.73;;;8.50;99.90;;;;;;4990768;28;20492;-75
2023/12/30 05:14:30;;;;;;;1.98;0.32;;;8.50;99.90;;;;;;4995327;28;20421;-74
2023/12/30 05:17:01;;;;;;;1.15;0.40;;;8.50;99.90;;;;;;4989834;28;20026;-74
2023/12/30 05:19:30;;;;;;;2.67;0.40;;;8.50;99.90;;;;;;4984310;28;20045;-75
2023/12/30 05:22:05;;;;;;;1.35;0.50;;;8.50;99.90;;;;;;4990310;28;20026;-74
2023/12/30 05:24:31;;;;;;;1.25;0.50;;;8.50;99.90;;;;;;4992235;28;20068;-74
2023/12/30 05:27:08;;;;;;;2.75;0.60;;;8.50;99.90;;;;;;5000916;28;20117;-74
2023/12/30 05:29:46;;;;;;;0.80;0.40;;;8.50;99.90;;;;;;4998153;28;20038;-74
2023/12/30 05:32:11;;;;;;;1.10;0.50;;;8.50;99.90;;;;;;4985725;28;20073;-74
2023/12/30 05:34:40;;;;;;;5.30;0.98;;;8.50;99.90;;;;;;4985170;28;20034;-74
2023/12/30 05:37:11;;;;;;;1.80;0.40;;;8.50;99.90;;;;;;4984399;28;20029;-74
2023/12/30 05:39:43;;;;;;;2.83;0.40;;;8.50;99.90;;;;;;4992018;28;20110;-74
2023/12/30 05:42:09;;;;;;;3.78;0.50;;;8.50;99.90;;;;;;5000594;28;20665;-75
2023/12/30 05:44:50;;;;;;;2.25;0.98;;;8.50;99.90;;;;;;4991728;28;20042;-76
2023/12/30 05:47:22;;;;;;;2.22;0.55;;;8.50;99.90;;;;;;4976063;28;20062;-75
2023/12/30 05:49:47;;;;;;;4.35;0.45;;;8.50;99.90;;;;;;4990198;28;20058;-74
2023/12/30 05:52:19;;;;;;;1.73;0.70;;;8.50;99.90;;;;;;4982028;28;20058;-74
2023/12/30 05:54:45;;;;;;;1.30;0.40;;;8.50;99.90;;;;;;4991080;28;20061;-74
2023/12/30 05:57:11;;;;;;;2.90;0.40;;;8.50;99.90;;;;;;4988470;28;20109;-75
2023/12/30 05:59:41;;;;;;;4.35;0.50;;;8.50;99.90;;;;;;4974200;28;20122;-74
2023/12/30 06:02:07;;;;;;;2.78;0.60;;;8.50;99.90;;;;;;4992821;28;20052;-74
2023/12/30 06:04:44;;;;;;;3.72;0.60;;;8.50;99.90;;;;;;4992618;28;20392;-75
2023/12/30 06:07:10;;;;;;;1.73;0.50;;;8.50;99.90;;;;;;4992813;28;20080;-74
2023/12/30 06:09:45;;;;;;;4.07;0.73;;;8.50;99.90;;;;;;4992570;28;20022;-75
2023/12/30 06:12:10;;;;;;;1.35;0.60;;;8.50;99.90;;;;;;4992706;28;20014;-75
2023/12/30 06:14:40;;;;;;;2.25;0.60;;;8.50;99.90;;;;;;4975021;28;20029;-74
2023/12/30 06:17:08;;;;;;;3.33;0.50;;;8.40;99.90;;;;;;4959536;28;20042;-75
2023/12/30 06:19:37;;;;;;;0.98;0.57;;;8.50;99.90;;;;;;4991654;28;20424;-74
2023/12/30 06:22:12;;;;;;;2.08;0.80;;;8.50;99.90;;;;;;4993940;28;20029;-74
2023/12/30 06:24:40;;;;;;;2.55;0.85;;;8.40;99.90;;;;;;4982339;28;20027;-74
2023/12/30 06:27:12;;;;;;;1.52;0.88;;;8.40;99.90;;;;;;4991538;28;20106;-74
2023/12/30 06:29:41;;;;;;;1.75;0.90;;;8.40;99.90;;;;;;4991357;28;20093;-74
2023/12/30 06:32:12;;;;;;;2.33;0.90;;;8.30;99.90;;;;;;4997862;28;20022;-74
2023/12/30 06:34:41;;;;;;;2.47;0.88;;;8.30;99.90;;;;;;4982645;28;20836;-71
2023/12/30 06:37:07;;;;;;;2.88;1.23;;;8.30;99.90;;;;;;4974674;28;23105;-72
2023/12/30 06:39:32;;;;;;;1.85;0.70;;;8.40;99.90;;;;;;4995357;28;20038;-74
2023/12/30 06:41:59;;;;;;;3.13;0.90;;;8.40;99.90;;;;;;5012077;28;20022;-73
2023/12/30 06:44:25;;;;;;;4.00;0.90;;;8.40;99.90;;;;;;4994530;28;20029;-73
2023/12/30 06:46:51;;;;;;;3.00;0.70;;;8.40;99.90;;;;;;5021147;23;20061;-71
2023/12/30 06:49:24;;;;;;;1.23;0.65;;;8.40;99.90;;;;;;5009321;28;20049;-71
2023/12/30 06:51:49;;;;;;;1.50;0.60;;;8.40;99.90;;;;;;5007496;28;20014;-71
2023/12/30 06:54:15;;;;;;;1.90;0.60;;;8.40;99.90;;;;;;5013264;28;20435;-72
2023/12/30 06:56:40;;;;;;;1.00;0.70;;;8.40;99.90;;;;;;4993781;28;20030;-72
2023/12/30 06:59:06;;;;;;;3.17;1.13;;;8.40;99.90;;;;;;5017019;28;20071;-71
2023/12/30 07:01:32;;;;;;;3.53;1.00;;;8.40;99.90;;;;;;5015523;28;20109;-71
2023/12/30 07:04:07;;;;;;;1.83;0.47;;;8.40;99.90;;;;;;5018325;28;20021;-71
2023/12/30 07:06:48;;;;;;;1.77;0.77;;;8.40;99.90;;;;;;5015261;28;20026;-70
2023/12/30 07:09:16;;;;;;;2.38;0.95;;;8.50;99.90;;;;;;5016773;28;20057;-71
2023/12/30 07:11:48;;;;;;;4.65;0.63;;;8.50;99.90;;;;;;4991241;28;20034;-71
2023/12/30 07:14:17;;;;;;;1.15;0.65;;;8.50;99.90;;;;;;5009780;28;20026;-71
2023/12/30 07:16:51;;;;;;;0.95;0.50;;;8.50;99.90;;;;;;5012739;28;20026;-71
2023/12/30 07:19:22;;;;;;;2.05;0.45;;;8.50;99.90;;;;;;4997035;28;20089;-71
2023/12/30 07:21:48;;;;;;;2.80;0.45;;;8.50;99.90;;;;;;5012890;28;20018;-72
2023/12/30 07:24:22;;;;;;;2.28;0.40;;;8.50;99.90;;;;;;4995105;28;20156;-72
2023/12/30 07:26:51;;;;;;;1.00;0.50;;;8.60;99.90;;;;;;5011947;28;20022;-74
2023/12/30 07:29:20;;;;;;;0.35;0.32;;;8.50;99.90;;;;;;5016474;28;20029;-72
2023/12/30 07:31:45;;;;;;;1.45;0.40;;;8.50;99.90;;;;;;5010989;28;20500;-72
2023/12/30 07:34:11;;;;;;;2.92;0.60;;;8.50;99.90;;;;;;5013678;28;20097;-73
2023/12/30 07:36:36;;;;;;;0.55;0.30;;;8.60;99.90;;;;;;5013930;28;20026;-73
2023/12/30 07:39:05;;;;;;;0.73;0.50;;;8.60;99.90;;;;;;5014656;28;20014;-72
2023/12/30 07:41:33;;;;;;;2.20;0.55;;;8.60;99.90;;;;;;5007701;28;20014;-75
2023/12/30 07:43:59;;;;;;;1.25;0.50;;;8.60;99.90;;;;;;4997191;28;20562;-73
2023/12/30 07:46:25;;;;;;;1.20;0.50;;;8.60;99.90;;;;;;5013772;28;20046;-75
2023/12/30 07:48:54;;;;;;;1.48;0.80;;;8.60;99.90;;;;;;5015543;28;20025;-72
2023/12/30 07:51:23;;;;;;;1.67;0.60;;;8.60;99.90;;;;;;5013286;28;20038;-72
2023/12/30 07:53:55;;;;;;;1.48;0.68;;;8.70;99.90;;;;;;5010275;28;20027;-71
2023/12/30 07:56:24;;;;;;;2.72;0.50;;;8.70;99.90;;;;;;5017334;28;20539;-71
2023/12/30 07:58:52;;;;;;;1.02;0.68;;;8.70;99.90;;;;;;5017260;28;20037;-72
2023/12/30 08:01:21;;;;;;;1.55;0.77;;;8.70;99.90;;;;;;5011793;28;20037;-72
2023/12/30 08:03:46;;;;;;;1.58;0.60;;;8.70;99.90;;;;;;5010173;28;20025;-72
2023/12/30 08:06:21;;;;;;;1.15;0.60;;;8.70;99.90;;;;;;5017076;28;20028;-71
2023/12/30 08:08:49;;;;;;;6.47;0.80;;;8.80;99.90;;;;;;5008787;28;20405;-72
2023/12/30 08:11:18;;;;;;;2.95;1.38;;;8.70;99.90;;;;;;5012593;28;20040;-72
2023/12/30 08:13:50;;;;;;;1.65;1.00;;;8.80;99.90;;;;;;5011900;28;20028;-72
2023/12/30 08:16:22;;;;;;;1.48;0.80;;;8.80;99.90;;;;;;5014484;28;20049;-72
2023/12/30 08:18:50;;;;;;;1.10;0.60;;;8.80;99.90;;;;;;5013388;28;20097;-72
2023/12/30 08:21:19;;;;;;;0.95;0.80;;;8.80;99.90;;;;;;5013085;28;20022;-72
2023/12/30 08:23:48;;;;;;;1.00;0.40;;;8.80;99.90;;;;;;5011563;28;20087;-73
2023/12/30 08:26:26;;;;;;;1.63;0.55;;;8.80;99.90;;;;;;5018385;28;20149;-72
2023/12/30 08:28:52;;;;;;;1.35;0.50;;;8.80;99.90;;;;;;5012292;28;20032;-73
2023/12/30 08:31:18;;;;;;;2.70;0.70;;;8.80;99.90;;;;;;5010474;28;20077;-72
2023/12/30 08:33:48;;;;;;;3.15;1.13;;;8.90;99.90;;;;;;5013656;28;20029;-73
2023/12/30 08:36:16;;;;;;;2.00;0.80;;;8.80;99.90;;;;;;5012646;28;20026;-72
2023/12/30 08:38:45;;;;;;;1.35;0.50;;;8.80;99.90;;;;;;5015162;28;20041;-72
2023/12/30 08:41:24;;;;;;;1.58;0.50;;;8.80;99.90;;;;;;5011037;28;20076;-72
2023/12/30 08:43:52;;;;;;;0.88;0.50;;;8.90;99.90;;;;;;5012880;28;20022;-72
2023/12/30 08:46:20;;;;;;;2.58;0.40;;;8.90;99.90;;;;;;5016791;28;20112;-72
2023/12/30 08:48:49;;;;;;;3.13;0.70;;;8.90;99.90;;;;;;5013766;28;20109;-72
2023/12/30 08:51:15;;;;;;;2.15;0.47;;;8.90;99.90;;;;;;5015255;28;20472;-72
2023/12/30 08:53:47;;;;;;;0.77;0.45;;;8.90;99.90;;;;;;5011500;28;20428;-73
2023/12/30 08:56:18;;;;;;;3.20;1.30;;;8.90;99.90;;;;;;5011089;28;20065;-72
2023/12/30 08:58:44;;;;;;;0.73;0.45;;;9.00;99.90;;;;;;5016224;28;20042;-72
2023/12/30 09:01:18;;;;;;;1.63;0.45;;;9.00;99.90;;;;;;5010252;28;20018;-72
2023/12/30 09:03:44;;;;;;;1.60;0.65;;;9.10;99.90;;;;;;5012676;28;20080;-72
2023/12/30 09:06:10;;;;;;;2.08;0.57;;;9.10;99.90;;;;;;5005315;28;20411;-72
2023/12/30 09:08:45;;;;;;;3.83;0.95;;;9.10;99.90;;;;;;5012523;28;20485;-73
2023/12/30 09:11:23;;;;;;;1.02;0.40;;;9.20;99.90;;;;;;5014020;28;20022;-73
2023/12/30 09:13:49;;;;;;;1.50;0.80;;;9.20;99.90;;;;;;5016603;28;20447;-73
2023/12/30 09:16:24;;;;;;;1.10;0.55;;;9.30;99.90;;;;;;5009063;28;20116;-72
2023/12/30 09:18:50;;;;;;;0.90;0.40;;;9.30;99.90;;;;;;5013467;28;20484;-72
2023/12/30 09:21:22;;;;;;;4.63;1.05;;;9.40;99.90;;;;;;5010261;28;20026;-73
2023/12/30 09:23:47;;;;;;;2.55;0.50;;;9.40;99.90;;;;;;5001383;28;20120;-73
2023/12/30 09:26:14;;;;;;;2.10;0.60;;;9.40;99.90;;;;;;5012804;28;20062;-72
2023/12/30 09:28:48;;;;;;;1.17;0.40;;;9.50;99.90;;;;;;5010812;28;20975;-73
2023/12/30 09:31:20;;;;;;;0.90;0.60;;;9.50;99.90;;;;;;5012208;28;20025;-71
2023/12/30 09:33:46;;;;;;;2.05;0.90;;;9.50;99.90;;;;;;5008099;28;20083;-72
2023/12/30 09:36:12;;;;;;;1.23;0.50;;;9.50;99.90;;;;;;5009722;28;20025;-72
2023/12/30 09:38:53;;;;;;;1.77;0.60;;;9.50;99.90;;;;;;5019757;28;20018;-72
2023/12/30 09:41:21;;;;;;;0.85;0.43;;;9.50;99.90;;;;;;5008293;28;20077;-72
2023/12/30 09:43:47;;;;;;;0.50;0.40;;;9.60;99.90;;;;;;5011821;28;20060;-72
2023/12/30 09:46:15;;;;;;;0.75;0.40;;;9.50;99.90;;;;;;5011649;28;20029;-72
2023/12/30 09:48:43;;;;;;;0.93;0.60;;;9.50;99.90;;;;;;4992680;28;20037;-72
2023/12/30 09:51:09;;;;;;;3.65;0.93;;;9.50;99.90;;;;;;5014401;28;20487;-72
2023/12/30 09:53:35;;;;;;;3.22;1.17;;;9.50;99.90;;;;;;5007815;28;20030;-72
2023/12/30 09:56:02;;;;;;;3.40;1.00;;;9.50;99.90;;;;;;5014780;28;20026;-72
2023/12/30 09:58:28;;;;;;;4.45;1.50;;;9.40;99.90;;;;;;5013900;28;20463;-72
2023/12/30 10:00:54;;;;;;;5.90;3.40;;;9.40;99.90;;;;;;5014263;28;20109;-72
2023/12/30 10:03:21;;;;;;;5.47;2.10;;;9.40;99.90;;;;;;5011426;28;20030;-72
2023/12/30 10:05:47;;;;;;;9.10;3.38;;;9.40;99.90;;;;;;5011604;28;20034;-71
2023/12/30 10:08:13;;;;;;;4.50;2.03;;;9.30;99.90;;;;;;5010503;28;20079;-71
2023/12/30 10:10:53;;;;;;;5.15;1.95;;;9.30;99.90;;;;;;5015915;28;20080;-71
2023/12/30 10:13:22;;;;;;;7.10;2.42;;;9.30;99.90;;;;;;5008719;28;20033;-72
2023/12/30 10:15:48;;;;;;;14.10;6.32;;;9.20;99.90;;;;;;5014019;28;20025;-71
2023/12/30 10:18:15;;;;;;;7.30;3.78;;;9.30;99.90;;;;;;5016163;28;20050;-72
2023/12/30 10:20:45;;;;;;;12.38;5.65;;;9.20;99.90;;;;;;5010346;28;20377;-72
2023/12/30 10:23:11;;;;;;;16.10;8.70;;;9.20;99.90;;;;;;5008661;28;20026;-71
2023/12/30 10:25:41;;;;;;;15.13;7.22;;;9.20;99.90;;;;;;5010734;28;20390;-72
2023/12/30 10:28:07;;;;;;;10.77;4.28;;;9.20;99.90;;;;;;5011959;28;20498;-72
2023/12/30 10:30:32;;;;;;;12.65;5.80;;;9.20;99.90;;;;;;5009420;28;20029;-72
2023/12/30 10:33:12;;;;;;;18.45;9.05;;;9.20;99.90;;;;;;5010437;28;20040;-72
2023/12/30 10:35:44;;;;;;;63.53;34.08;;;9.20;99.90;;;;;;5010429;28;20521;-72
2023/12/30 10:38:24;;;;;;;28.25;14.95;;;9.20;99.90;;;;;;5007883;28;20480;-72
2023/12/30 10:40:59;;;;;;;16.10;7.28;;;9.20;99.90;;;;;;4993673;28;20021;-72
2023/12/30 10:43:25;;;;;;;12.75;5.38;;;9.20;99.90;;;;;;5009727;28;20025;-72
2023/12/30 10:45:59;;;;;;;11.13;5.20;;;9.20;99.90;;;;;;5010383;28;20120;-72
2023/12/30 10:48:54;;;;;;;14.32;6.68;;;9.30;99.90;;;;;;5012368;28;20072;-72
2023/12/30 10:51:26;;;;;;;6.18;2.65;;;9.20;99.90;;;;;;5008644;28;20442;-72
2023/12/30 10:54:09;;;;;;;12.00;5.03;;;9.30;99.90;;;;;;5007953;28;20026;-72
2023/12/30 10:56:44;;;;;;;5.70;1.60;;;9.40;99.90;;;;;;4991024;28;20030;-72
2023/12/30 10:59:18;;;;;;;6.28;2.58;;;9.40;99.90;;;;;;5009415;28;20032;-73
2023/12/30 11:02:03;;;;;;;9.10;3.58;;;9.50;99.90;;;;;;5010574;28;20145;-73
2023/12/30 11:04:42;;;;;;;3.63;1.75;;;9.60;99.90;;;;;;5009045;28;20034;-73
2023/12/30 11:07:13;;;;;;;4.88;2.05;;;9.60;99.90;;;;;;5006275;28;20034;-73
2023/12/30 11:09:39;;;;;;;6.57;2.85;;;9.70;99.90;;;;;;5006437;28;20026;-73
2023/12/30 11:12:09;;;;;;;7.57;3.50;;;9.70;99.90;;;;;;5006758;28;20076;-73
2023/12/30 11:14:40;;;;;;;10.55;5.88;;;9.70;99.90;;;;;;5006135;28;20026;-72
2023/12/30 11:17:32;;;;;;;3.85;2.22;;;9.70;99.90;;;;;;5008494;28;20397;-72
2023/12/30 11:20:27;;;;;;;3.35;1.52;;;9.70;99.90;;;;;;5010609;28;20354;-72
2023/12/30 11:22:54;;;;;;;5.25;1.85;;;9.70;99.90;;;;;;5003661;28;20485;-72
2023/12/30 11:25:20;;;;;;;3.65;0.95;;;9.70;99.90;;;;;;5008708;28;20080;-73
2023/12/30 11:28:38;;;;;;;5.20;1.30;;;9.70;99.90;;;;;;5004493;28;20034;-73
2023/12/30 11:31:09;;;;;;;6.22;2.25;;;9.80;99.90;;;;;;4998168;28;20049;-72
2023/12/30 11:33:35;;;;;;;3.17;1.42;;;9.80;99.90;;;;;;5007263;28;20029;-71
2023/12/30 11:36:09;;;;;;;2.88;1.33;;;9.80;99.90;;;;;;5004897;28;20093;-72
2023/12/30 11:38:40;;;;;;;3.17;1.15;;;9.90;99.90;;;;;;5006327;28;20021;-72
2023/12/30 11:41:15;;;;;;;5.38;1.67;;;9.90;99.90;;;;;;5010646;28;20069;-71
2023/12/30 11:43:46;;;;;;;2.47;1.40;;;9.90;99.90;;;;;;5014646;28;20045;-72
2023/12/30 11:46:13;;;;;;;5.82;2.47;;;9.90;99.90;;;;;;4995934;28;20029;-72
2023/12/30 11:48:42;;;;;;;4.68;1.45;;;9.80;99.90;;;;;;5011122;28;20023;-73
2023/12/30 11:51:10;;;;;;;11.75;4.00;;;9.80;99.90;;;;;;5008752;28;20052;-71
2023/12/30 11:53:42;;;;;;;9.13;3.83;;;9.80;99.90;;;;;;5011782;28;20660;-72
2023/12/30 11:56:08;;;;;;;6.25;1.98;;;9.80;99.90;;;;;;5009368;28;20389;-72
2023/12/30 11:58:40;;;;;;;8.93;3.28;;;9.80;99.90;;;;;;5004889;28;20118;-73
2023/12/30 12:01:05;;;;;;;2.90;1.05;;;9.80;99.90;;;;;;5013627;28;20531;-72
2023/12/30 12:03:31;;;;;;;6.50;2.78;;;9.80;99.90;;;;;;5013224;28;20033;-72
2023/12/30 12:05:57;;;;;;;3.17;1.13;;;9.90;99.90;;;;;;5018534;28;20250;-72
2023/12/30 12:08:22;;;;;;;0.88;0.70;;;9.90;99.90;;;;;;5019288;28;20025;-72
2023/12/30 12:10:48;;;;;;;1.10;0.60;;;10.00;99.90;;;;;;5012080;28;20503;-72
2023/12/30 12:13:24;;;;;;;1.63;0.57;;;10.00;99.90;;;;;;5016539;28;20026;-72
2023/12/30 12:15:50;;;;;;;1.00;0.60;;;10.00;99.90;;;;;;5006808;28;20523;-72
2023/12/30 12:18:17;;;;;;;1.27;0.43;;;10.10;99.90;;;;;;5015006;28;20041;-73
2023/12/30 12:20:43;;;;;;;0.65;0.50;;;10.10;99.90;;;;;;4992871;28;20032;-69
2023/12/30 12:23:11;;;;;;;1.02;0.50;;;10.10;99.90;;;;;;5013427;28;20022;-72
2023/12/30 12:25:38;;;;;;;0.68;0.50;;;10.10;99.90;;;;;;4995558;28;20065;-74
2023/12/30 12:28:11;;;;;;;0.70;0.50;;;10.20;99.90;;;;;;5013131;28;20377;-71
2023/12/30 12:30:37;;;;;;;0.68;0.47;;;10.30;99.90;;;;;;4996580;28;20034;-71
2023/12/30 12:33:04;;;;;;;1.08;0.40;;;10.30;99.90;;;;;;5010115;28;20532;-71
2023/12/30 12:35:30;;;;;;;1.80;0.80;;;10.30;99.90;;;;;;5010324;28;20034;-71
2023/12/30 12:37:59;;;;;;;2.50;0.60;;;10.40;99.90;;;;;;5015745;28;20025;-71
2023/12/30 12:40:25;;;;;;;1.10;0.50;;;10.50;99.90;;;;;;5008689;28;20084;-71
2023/12/30 12:42:51;;;;;;;1.92;0.63;;;10.50;99.90;;;;;;5014923;28;20437;-72
2023/12/30 12:45:16;;;;;;;0.60;0.50;;;10.50;99.90;;;;;;5011280;28;20110;-71
2023/12/30 12:47:44;;;;;;;1.27;0.70;;;10.60;99.90;;;;;;5010723;28;20073;-71
2023/12/30 12:50:10;;;;;;;1.95;0.88;;;10.60;99.90;;;;;;5008474;28;20031;-70
2023/12/30 12:52:36;;;;;;;1.65;0.60;;;10.60;99.90;;;;;;5008927;28;20030;-71
2023/12/30 12:55:02;;;;;;;1.00;0.50;;;10.60;99.90;;;;;;5006567;28;20028;-71
2023/12/30 12:57:28;;;;;;;0.75;0.50;;;10.70;99.90;;;;;;5008015;28;20107;-71
2023/12/30 12:59:54;;;;;;;0.85;0.50;;;10.70;99.90;;;;;;5007996;28;20120;-72
2023/12/30 13:02:20;;;;;;;1.05;0.47;;;10.70;99.90;;;;;;5009646;28;20093;-72
2023/12/30 13:04:45;;;;;;;1.17;0.50;;;10.70;99.90;;;;;;5013560;28;20128;-72
2023/12/30 13:07:11;;;;;;;2.10;0.90;;;10.70;99.90;;;;;;5005506;28;20030;-72